sensor_id;sensor_type;location;lat;lon;timestamp;temperature;humidity
75899;DHT22;64576;50.460;4.866;2024-01-30T00:02:09;9.04;91.40
75899;DHT22;64576;50.460;4.866;2024-01-30T00:04:35;9.00;91.52
75899;DHT22;64576;50.460;4.866;2024-01-30T00:07:00;8.87;91.99
75899;DHT22;64576;50.460;4.866;2024-01-30T00:09:25;8.97;91.83
75899;DHT22;64576;50.460;4.866;2024-01-30T00:11:51;8.76;92.32
75899;DHT22;64576;50.460;4.866;2024-01-30T00:14:16;9.00;91.92
75899;DHT22;64576;50.460;4.866;2024-01-30T00:16:42;9.03;91.70
75899;DHT22;64576;50.460;4.866;2024-01-30T00:19:07;9.07;91.60
75899;DHT22;64576;50.460;4.866;2024-01-30T00:21:33;8.94;91.91
75899;DHT22;64576;50.460;4.866;2024-01-30T00:23:59;8.92;92.16
75899;DHT22;64576;50.460;4.866;2024-01-30T00:26:24;9.11;91.73
75899;DHT22;64576;50.460;4.866;2024-01-30T00:28:50;8.94;91.96
75899;DHT22;64576;50.460;4.866;2024-01-30T00:31:15;8.92;92.18
75899;DHT22;64576;50.460;4.866;2024-01-30T00:33:41;8.97;91.97
75899;DHT22;64576;50.460;4.866;2024-01-30T00:36:07;9.20;91.44
75899;DHT22;64576;50.460;4.866;2024-01-30T00:38:33;9.24;91.29
75899;DHT22;64576;50.460;4.866;2024-01-30T00:40:59;9.23;91.11
75899;DHT22;64576;50.460;4.866;2024-01-30T00:43:24;9.16;91.51
75899;DHT22;64576;50.460;4.866;2024-01-30T00:45:52;9.26;91.49
75899;DHT22;64576;50.460;4.866;2024-01-30T00:48:18;9.31;91.09
75899;DHT22;64576;50.460;4.866;2024-01-30T00:50:44;9.30;91.09
75899;DHT22;64576;50.460;4.866;2024-01-30T00:53:09;9.31;91.09
75899;DHT22;64576;50.460;4.866;2024-01-30T00:55:35;9.17;91.48
75899;DHT22;64576;50.460;4.866;2024-01-30T00:58:01;9.20;91.46
75899;DHT22;64576;50.460;4.866;2024-01-30T01:00:26;9.13;91.69
75899;DHT22;64576;50.460;4.866;2024-01-30T01:02:55;9.44;90.77
75899;DHT22;64576;50.460;4.866;2024-01-30T01:05:20;9.38;90.95
75899;DHT22;64576;50.460;4.866;2024-01-30T01:07:46;9.38;91.01
75899;DHT22;64576;50.460;4.866;2024-01-30T01:10:13;9.32;91.00
75899;DHT22;64576;50.460;4.866;2024-01-30T01:12:39;9.26;91.24
75899;DHT22;64576;50.460;4.866;2024-01-30T01:15:05;9.11;91.70
75899;DHT22;64576;50.460;4.866;2024-01-30T01:17:31;9.14;91.81
75899;DHT22;64576;50.460;4.866;2024-01-30T01:19:57;9.14;91.74
75899;DHT22;64576;50.460;4.866;2024-01-30T01:22:22;9.18;91.66
75899;DHT22;64576;50.460;4.866;2024-01-30T01:24:48;9.14;91.75
75899;DHT22;64576;50.460;4.866;2024-01-30T01:27:13;9.11;91.91
75899;DHT22;64576;50.460;4.866;2024-01-30T01:29:38;9.18;91.75
75899;DHT22;64576;50.460;4.866;2024-01-30T01:32:04;9.18;91.77
75899;DHT22;64576;50.460;4.866;2024-01-30T01:34:29;9.20;91.77
75899;DHT22;64576;50.460;4.866;2024-01-30T01:36:55;9.17;91.94
75899;DHT22;64576;50.460;4.866;2024-01-30T01:39:22;9.14;91.91
75899;DHT22;64576;50.460;4.866;2024-01-30T01:41:49;9.01;92.33
75899;DHT22;64576;50.460;4.866;2024-01-30T01:44:14;9.01;92.49
75899;DHT22;64576;50.460;4.866;2024-01-30T01:46:39;9.09;92.26
75899;DHT22;64576;50.460;4.866;2024-01-30T01:49:05;9.18;92.14
75899;DHT22;64576;50.460;4.866;2024-01-30T01:51:34;9.18;92.15
75899;DHT22;64576;50.460;4.866;2024-01-30T01:54:03;9.09;92.32
75899;DHT22;64576;50.460;4.866;2024-01-30T01:56:29;9.16;92.30
75899;DHT22;64576;50.460;4.866;2024-01-30T01:59:05;9.21;92.16
75899;DHT22;64576;50.460;4.866;2024-01-30T02:01:32;9.14;92.23
75899;DHT22;64576;50.460;4.866;2024-01-30T02:03:58;9.26;92.01
75899;DHT22;64576;50.460;4.866;2024-01-30T02:06:24;9.30;91.98
75899;DHT22;64576;50.460;4.866;2024-01-30T02:08:49;9.21;92.07
75899;DHT22;64576;50.460;4.866;2024-01-30T02:11:15;9.34;91.91
75899;DHT22;64576;50.460;4.866;2024-01-30T02:13:41;9.37;91.79
75899;DHT22;64576;50.460;4.866;2024-01-30T02:16:07;9.39;91.72
75899;DHT22;64576;50.460;4.866;2024-01-30T02:18:32;9.44;91.67
75899;DHT22;64576;50.460;4.866;2024-01-30T02:20:58;9.42;91.69
75899;DHT22;64576;50.460;4.866;2024-01-30T02:23:27;9.45;91.73
75899;DHT22;64576;50.460;4.866;2024-01-30T02:25:52;9.48;91.69
75899;DHT22;64576;50.460;4.866;2024-01-30T02:28:19;9.42;91.87
75899;DHT22;64576;50.460;4.866;2024-01-30T02:30:46;9.38;91.98
75899;DHT22;64576;50.460;4.866;2024-01-30T02:33:12;9.37;92.12
75899;DHT22;64576;50.460;4.866;2024-01-30T02:35:37;9.28;92.17
75899;DHT22;64576;50.460;4.866;2024-01-30T02:38:03;9.27;92.21
75899;DHT22;64576;50.460;4.866;2024-01-30T02:40:28;9.21;92.41
75899;DHT22;64576;50.460;4.866;2024-01-30T02:42:54;9.17;92.69
75899;DHT22;64576;50.460;4.866;2024-01-30T02:45:19;9.14;92.79
75899;DHT22;64576;50.460;4.866;2024-01-30T02:47:45;9.17;92.63
75899;DHT22;64576;50.460;4.866;2024-01-30T02:50:11;9.20;92.58
75899;DHT22;64576;50.460;4.866;2024-01-30T02:52:36;9.20;92.91
75899;DHT22;64576;50.460;4.866;2024-01-30T02:55:02;9.34;92.73
75899;DHT22;64576;50.460;4.866;2024-01-30T02:57:28;9.31;92.42
75899;DHT22;64576;50.460;4.866;2024-01-30T02:59:53;9.28;92.48
75899;DHT22;64576;50.460;4.866;2024-01-30T03:02:19;9.31;92.58
75899;DHT22;64576;50.460;4.866;2024-01-30T03:04:45;9.32;92.56
75899;DHT22;64576;50.460;4.866;2024-01-30T03:07:10;9.24;92.78
75899;DHT22;64576;50.460;4.866;2024-01-30T03:09:36;9.21;92.92
75899;DHT22;64576;50.460;4.866;2024-01-30T03:12:03;9.17;93.16
75899;DHT22;64576;50.460;4.866;2024-01-30T03:14:31;9.17;93.27
75899;DHT22;64576;50.460;4.866;2024-01-30T03:16:56;9.18;92.98
75899;DHT22;64576;50.460;4.866;2024-01-30T03:19:21;9.26;92.97
75899;DHT22;64576;50.460;4.866;2024-01-30T03:21:47;9.23;93.03
75899;DHT22;64576;50.460;4.866;2024-01-30T03:24:12;9.20;93.09
75899;DHT22;64576;50.460;4.866;2024-01-30T03:26:37;9.13;93.42
75899;DHT22;64576;50.460;4.866;2024-01-30T03:29:03;9.14;93.29
75899;DHT22;64576;50.460;4.866;2024-01-30T03:31:28;9.09;93.51
75899;DHT22;64576;50.460;4.866;2024-01-30T03:33:53;9.07;93.44
75899;DHT22;64576;50.460;4.866;2024-01-30T03:36:19;9.06;93.58
75899;DHT22;64576;50.460;4.866;2024-01-30T03:38:45;9.10;93.71
75899;DHT22;64576;50.460;4.866;2024-01-30T03:41:10;9.07;93.60
75899;DHT22;64576;50.460;4.866;2024-01-30T03:43:36;9.03;93.89
75899;DHT22;64576;50.460;4.866;2024-01-30T03:46:02;9.10;93.74
75899;DHT22;64576;50.460;4.866;2024-01-30T03:48:28;9.16;93.87
75899;DHT22;64576;50.460;4.866;2024-01-30T03:50:54;9.18;93.62
75899;DHT22;64576;50.460;4.866;2024-01-30T03:53:19;9.11;93.95
75899;DHT22;64576;50.460;4.866;2024-01-30T03:55:45;9.20;93.73
75899;DHT22;64576;50.460;4.866;2024-01-30T03:58:10;9.21;93.76
75899;DHT22;64576;50.460;4.866;2024-01-30T04:00:36;9.13;93.98
75899;DHT22;64576;50.460;4.866;2024-01-30T04:03:01;9.03;94.34
75899;DHT22;64576;50.460;4.866;2024-01-30T04:05:26;9.17;94.11
75899;DHT22;64576;50.460;4.866;2024-01-30T04:07:52;9.17;93.96
75899;DHT22;64576;50.460;4.866;2024-01-30T04:10:17;9.16;94.11
75899;DHT22;64576;50.460;4.866;2024-01-30T04:12:42;9.28;93.78
75899;DHT22;64576;50.460;4.866;2024-01-30T04:15:08;9.32;93.71
75899;DHT22;64576;50.460;4.866;2024-01-30T04:17:33;9.21;93.93
75899;DHT22;64576;50.460;4.866;2024-01-30T04:19:59;9.13;94.07
75899;DHT22;64576;50.460;4.866;2024-01-30T04:22:24;9.04;94.40
75899;DHT22;64576;50.460;4.866;2024-01-30T04:24:50;9.06;94.59
75899;DHT22;64576;50.460;4.866;2024-01-30T04:27:15;8.97;94.74
75899;DHT22;64576;50.460;4.866;2024-01-30T04:29:40;8.93;94.94
75899;DHT22;64576;50.460;4.866;2024-01-30T04:32:06;8.90;94.95
75899;DHT22;64576;50.460;4.866;2024-01-30T04:34:31;8.84;95.22
75899;DHT22;64576;50.460;4.866;2024-01-30T04:36:57;8.84;95.30
75899;DHT22;64576;50.460;4.866;2024-01-30T04:39:22;8.75;95.70
75899;DHT22;64576;50.460;4.866;2024-01-30T04:41:47;8.66;96.03
75899;DHT22;64576;50.460;4.866;2024-01-30T04:44:13;8.72;96.04
75899;DHT22;64576;50.460;4.866;2024-01-30T04:46:39;8.69;96.07
75899;DHT22;64576;50.460;4.866;2024-01-30T04:49:04;8.68;96.10
75899;DHT22;64576;50.460;4.866;2024-01-30T04:51:29;8.61;96.32
75899;DHT22;64576;50.460;4.866;2024-01-30T04:53:55;8.62;96.42
75899;DHT22;64576;50.460;4.866;2024-01-30T04:56:20;8.51;96.62
75899;DHT22;64576;50.460;4.866;2024-01-30T04:58:46;8.42;97.11
75899;DHT22;64576;50.460;4.866;2024-01-30T05:01:15;8.46;96.93
75899;DHT22;64576;50.460;4.866;2024-01-30T05:03:41;8.48;96.93
75899;DHT22;64576;50.460;4.866;2024-01-30T05:06:06;8.55;96.75
75899;DHT22;64576;50.460;4.866;2024-01-30T05:08:32;8.46;96.91
75899;DHT22;64576;50.460;4.866;2024-01-30T05:11:00;8.63;96.69
75899;DHT22;64576;50.460;4.866;2024-01-30T05:13:25;8.82;96.16
75899;DHT22;64576;50.460;4.866;2024-01-30T05:15:51;8.83;96.16
75899;DHT22;64576;50.460;4.866;2024-01-30T05:18:16;8.80;96.03
75899;DHT22;64576;50.460;4.866;2024-01-30T05:20:41;8.79;95.96
75899;DHT22;64576;50.460;4.866;2024-01-30T05:23:07;8.82;95.98
75899;DHT22;64576;50.460;4.866;2024-01-30T05:25:33;8.86;96.00
75899;DHT22;64576;50.460;4.866;2024-01-30T05:27:58;8.87;95.92
75899;DHT22;64576;50.460;4.866;2024-01-30T05:30:24;8.84;96.14
75899;DHT22;64576;50.460;4.866;2024-01-30T05:32:49;8.87;95.90
75899;DHT22;64576;50.460;4.866;2024-01-30T05:35:15;8.87;96.17
75899;DHT22;64576;50.460;4.866;2024-01-30T05:37:40;8.82;96.22
75899;DHT22;64576;50.460;4.866;2024-01-30T05:40:06;8.79;96.29
75899;DHT22;64576;50.460;4.866;2024-01-30T05:42:32;8.73;96.53
75899;DHT22;64576;50.460;4.866;2024-01-30T05:44:57;8.76;96.40
75899;DHT22;64576;50.460;4.866;2024-01-30T05:47:23;8.83;96.38
75899;DHT22;64576;50.460;4.866;2024-01-30T05:49:48;8.86;96.31
75899;DHT22;64576;50.460;4.866;2024-01-30T05:52:13;8.77;96.56
75899;DHT22;64576;50.460;4.866;2024-01-30T05:54:40;8.89;96.61
75899;DHT22;64576;50.460;4.866;2024-01-30T05:57:05;8.84;96.56
75899;DHT22;64576;50.460;4.866;2024-01-30T05:59:31;8.87;96.50
75899;DHT22;64576;50.460;4.866;2024-01-30T06:01:57;9.00;96.29
75899;DHT22;64576;50.460;4.866;2024-01-30T06:04:23;8.96;96.28
75899;DHT22;64576;50.460;4.866;2024-01-30T06:06:48;8.94;96.54
75899;DHT22;64576;50.460;4.866;2024-01-30T06:09:14;8.99;96.28
75899;DHT22;64576;50.460;4.866;2024-01-30T06:11:39;8.97;96.50
75899;DHT22;64576;50.460;4.866;2024-01-30T06:14:05;9.00;96.35
75899;DHT22;64576;50.460;4.866;2024-01-30T06:16:30;8.96;96.53
75899;DHT22;64576;50.460;4.866;2024-01-30T06:18:56;9.07;96.25
75899;DHT22;64576;50.460;4.866;2024-01-30T06:21:22;8.93;96.62
75899;DHT22;64576;50.460;4.866;2024-01-30T06:23:47;8.86;96.77
75899;DHT22;64576;50.460;4.866;2024-01-30T06:26:12;8.80;96.83
75899;DHT22;64576;50.460;4.866;2024-01-30T06:28:38;8.73;97.28
75899;DHT22;64576;50.460;4.866;2024-01-30T06:31:03;8.76;97.31
75899;DHT22;64576;50.460;4.866;2024-01-30T06:33:29;8.80;97.25
75899;DHT22;64576;50.460;4.866;2024-01-30T06:35:54;8.89;97.21
75899;DHT22;64576;50.460;4.866;2024-01-30T06:38:20;8.94;97.02
75899;DHT22;64576;50.460;4.866;2024-01-30T06:40:45;9.01;96.87
75899;DHT22;64576;50.460;4.866;2024-01-30T06:43:10;8.90;97.13
75899;DHT22;64576;50.460;4.866;2024-01-30T06:45:36;8.94;97.19
75899;DHT22;64576;50.460;4.866;2024-01-30T06:48:02;8.90;97.35
75899;DHT22;64576;50.460;4.866;2024-01-30T06:50:28;8.94;97.30
75899;DHT22;64576;50.460;4.866;2024-01-30T06:52:53;9.03;97.23
75899;DHT22;64576;50.460;4.866;2024-01-30T06:55:19;9.03;97.29
75899;DHT22;64576;50.460;4.866;2024-01-30T06:57:44;9.01;97.27
75899;DHT22;64576;50.460;4.866;2024-01-30T07:00:10;9.07;97.18
75899;DHT22;64576;50.460;4.866;2024-01-30T07:02:36;9.11;97.11
75899;DHT22;64576;50.460;4.866;2024-01-30T07:05:02;9.16;96.98
75899;DHT22;64576;50.460;4.866;2024-01-30T07:07:28;9.13;97.11
75899;DHT22;64576;50.460;4.866;2024-01-30T07:09:54;9.18;97.03
75899;DHT22;64576;50.460;4.866;2024-01-30T07:12:22;9.17;97.00
75899;DHT22;64576;50.460;4.866;2024-01-30T07:14:48;9.16;97.12
75899;DHT22;64576;50.460;4.866;2024-01-30T07:17:13;9.20;97.08
75899;DHT22;64576;50.460;4.866;2024-01-30T07:19:39;9.24;96.98
75899;DHT22;64576;50.460;4.866;2024-01-30T07:22:04;9.21;97.10
75899;DHT22;64576;50.460;4.866;2024-01-30T07:24:30;9.28;96.92
75899;DHT22;64576;50.460;4.866;2024-01-30T07:26:55;9.24;97.07
75899;DHT22;64576;50.460;4.866;2024-01-30T07:29:21;9.21;97.20
75899;DHT22;64576;50.460;4.866;2024-01-30T07:31:47;9.26;97.09
75899;DHT22;64576;50.460;4.866;2024-01-30T07:34:12;9.17;97.39
75899;DHT22;64576;50.460;4.866;2024-01-30T07:36:38;9.13;97.48
75899;DHT22;64576;50.460;4.866;2024-01-30T07:39:03;9.18;97.31
75899;DHT22;64576;50.460;4.866;2024-01-30T07:41:29;9.17;97.42
75899;DHT22;64576;50.460;4.866;2024-01-30T07:43:54;9.26;97.26
75899;DHT22;64576;50.460;4.866;2024-01-30T07:46:19;9.24;97.28
75899;DHT22;64576;50.460;4.866;2024-01-30T07:48:45;9.30;97.05
75899;DHT22;64576;50.460;4.866;2024-01-30T07:51:10;9.31;97.17
75899;DHT22;64576;50.460;4.866;2024-01-30T07:53:36;9.30;97.22
75899;DHT22;64576;50.460;4.866;2024-01-30T07:56:01;9.30;97.10
75899;DHT22;64576;50.460;4.866;2024-01-30T07:58:27;9.37;97.05
75899;DHT22;64576;50.460;4.866;2024-01-30T08:00:53;9.37;97.00
75899;DHT22;64576;50.460;4.866;2024-01-30T08:03:19;9.52;96.33
75899;DHT22;64576;50.460;4.866;2024-01-30T08:05:44;9.48;96.61
75899;DHT22;64576;50.460;4.866;2024-01-30T08:08:09;9.54;96.42
75899;DHT22;64576;50.460;4.866;2024-01-30T08:10:36;9.51;96.50
75899;DHT22;64576;50.460;4.866;2024-01-30T08:13:01;9.51;96.49
75899;DHT22;64576;50.460;4.866;2024-01-30T08:15:27;9.59;96.45
75899;DHT22;64576;50.460;4.866;2024-01-30T08:17:52;9.59;96.18
75899;DHT22;64576;50.460;4.866;2024-01-30T08:20:25;9.62;96.14
75899;DHT22;64576;50.460;4.866;2024-01-30T08:22:51;9.65;96.09
75899;DHT22;64576;50.460;4.866;2024-01-30T08:25:17;9.66;96.21
75899;DHT22;64576;50.460;4.866;2024-01-30T08:27:42;9.74;95.96
75899;DHT22;64576;50.460;4.866;2024-01-30T08:30:08;9.75;95.88
75899;DHT22;64576;50.460;4.866;2024-01-30T08:32:34;9.83;95.78
75899;DHT22;64576;50.460;4.866;2024-01-30T08:34:59;9.83;95.67
75899;DHT22;64576;50.460;4.866;2024-01-30T08:37:25;9.90;95.55
75899;DHT22;64576;50.460;4.866;2024-01-30T08:39:50;9.86;95.57
75899;DHT22;64576;50.460;4.866;2024-01-30T08:42:16;9.92;95.54
75899;DHT22;64576;50.460;4.866;2024-01-30T08:44:43;9.74;95.94
75899;DHT22;64576;50.460;4.866;2024-01-30T08:47:09;9.76;96.06
75899;DHT22;64576;50.460;4.866;2024-01-30T08:49:34;9.72;96.22
75899;DHT22;64576;50.460;4.866;2024-01-30T08:52:00;9.81;96.09
75899;DHT22;64576;50.460;4.866;2024-01-30T08:54:25;9.89;95.97
75899;DHT22;64576;50.460;4.866;2024-01-30T08:56:51;9.92;95.73
75899;DHT22;64576;50.460;4.866;2024-01-30T08:59:18;9.96;96.12
75899;DHT22;64576;50.460;4.866;2024-01-30T09:01:44;10.02;96.02
75899;DHT22;64576;50.460;4.866;2024-01-30T09:04:09;10.02;95.87
75899;DHT22;64576;50.460;4.866;2024-01-30T09:06:35;9.94;96.17
75899;DHT22;64576;50.460;4.866;2024-01-30T09:09:00;10.02;95.98
75899;DHT22;64576;50.460;4.866;2024-01-30T09:11:26;10.02;95.96
75899;DHT22;64576;50.460;4.866;2024-01-30T09:13:51;10.11;95.88
75899;DHT22;64576;50.460;4.866;2024-01-30T09:16:17;10.14;95.84
75899;DHT22;64576;50.460;4.866;2024-01-30T09:18:42;10.24;95.62
75899;DHT22;64576;50.460;4.866;2024-01-30T09:21:07;10.29;95.40
75899;DHT22;64576;50.460;4.866;2024-01-30T09:23:33;10.30;95.53
75899;DHT22;64576;50.460;4.866;2024-01-30T09:25:59;10.29;95.76
75899;DHT22;64576;50.460;4.866;2024-01-30T09:28:24;10.30;95.71
75899;DHT22;64576;50.460;4.866;2024-01-30T09:30:50;10.29;95.64
75899;DHT22;64576;50.460;4.866;2024-01-30T09:33:15;10.31;95.91
75899;DHT22;64576;50.460;4.866;2024-01-30T09:35:41;10.24;96.03
75899;DHT22;64576;50.460;4.866;2024-01-30T09:38:06;10.25;96.16
75899;DHT22;64576;50.460;4.866;2024-01-30T09:40:32;10.27;96.18
75899;DHT22;64576;50.460;4.866;2024-01-30T09:42:58;10.36;96.25
75899;DHT22;64576;50.460;4.866;2024-01-30T09:45:25;10.36;96.29
75899;DHT22;64576;50.460;4.866;2024-01-30T09:47:51;10.40;96.00
75899;DHT22;64576;50.460;4.866;2024-01-30T09:50:18;10.40;96.41
75899;DHT22;64576;50.460;4.866;2024-01-30T09:52:47;10.65;95.76
75899;DHT22;64576;50.460;4.866;2024-01-30T09:55:13;10.52;96.02
75899;DHT22;64576;50.460;4.866;2024-01-30T09:57:41;10.64;95.94
75899;DHT22;64576;50.460;4.866;2024-01-30T10:00:06;10.64;95.80
75899;DHT22;64576;50.460;4.866;2024-01-30T10:02:35;10.68;96.09
75899;DHT22;64576;50.460;4.866;2024-01-30T10:05:01;10.79;95.82
75899;DHT22;64576;50.460;4.866;2024-01-30T10:07:27;10.72;96.11
75899;DHT22;64576;50.460;4.866;2024-01-30T10:09:53;10.88;95.73
75899;DHT22;64576;50.460;4.866;2024-01-30T10:12:19;10.85;95.69
75899;DHT22;64576;50.460;4.866;2024-01-30T10:14:44;10.83;96.08
75899;DHT22;64576;50.460;4.866;2024-01-30T10:17:11;10.79;96.23
75899;DHT22;64576;50.460;4.866;2024-01-30T10:19:38;10.75;96.26
75899;DHT22;64576;50.460;4.866;2024-01-30T10:22:04;10.82;96.17
75899;DHT22;64576;50.460;4.866;2024-01-30T10:24:30;10.80;96.07
75899;DHT22;64576;50.460;4.866;2024-01-30T10:26:56;10.86;95.96
75899;DHT22;64576;50.460;4.866;2024-01-30T10:29:21;10.89;96.02
75899;DHT22;64576;50.460;4.866;2024-01-30T10:31:58;10.83;95.94
75899;DHT22;64576;50.460;4.866;2024-01-30T10:34:23;10.75;96.22
75899;DHT22;64576;50.460;4.866;2024-01-30T10:36:50;10.85;96.23
75899;DHT22;64576;50.460;4.866;2024-01-30T10:39:17;10.91;96.12
75899;DHT22;64576;50.460;4.866;2024-01-30T10:41:47;10.93;95.77
75899;DHT22;64576;50.460;4.866;2024-01-30T10:44:18;10.83;95.86
75899;DHT22;64576;50.460;4.866;2024-01-30T10:46:50;10.80;96.14
75899;DHT22;64576;50.460;4.866;2024-01-30T10:49:20;10.72;96.59
75899;DHT22;64576;50.460;4.866;2024-01-30T10:51:47;10.82;96.30
75899;DHT22;64576;50.460;4.866;2024-01-30T10:54:13;10.86;96.11
75899;DHT22;64576;50.460;4.866;2024-01-30T10:56:41;10.85;96.13
75899;DHT22;64576;50.460;4.866;2024-01-30T10:59:08;10.80;96.29
75899;DHT22;64576;50.460;4.866;2024-01-30T11:01:35;10.89;96.17
75899;DHT22;64576;50.460;4.866;2024-01-30T11:04:00;10.91;96.03
75899;DHT22;64576;50.460;4.866;2024-01-30T11:06:26;10.95;95.82
75899;DHT22;64576;50.460;4.866;2024-01-30T11:09:02;10.96;95.85
75899;DHT22;64576;50.460;4.866;2024-01-30T11:11:29;10.95;96.05
75899;DHT22;64576;50.460;4.866;2024-01-30T11:13:55;10.82;96.45
75899;DHT22;64576;50.460;4.866;2024-01-30T11:16:20;10.75;96.81
75899;DHT22;64576;50.460;4.866;2024-01-30T11:18:50;10.82;96.65
75899;DHT22;64576;50.460;4.866;2024-01-30T11:21:19;10.76;96.88
75899;DHT22;64576;50.460;4.866;2024-01-30T11:23:44;10.78;96.96
75899;DHT22;64576;50.460;4.866;2024-01-30T11:26:10;10.78;96.86
75899;DHT22;64576;50.460;4.866;2024-01-30T11:28:38;10.78;96.87
75899;DHT22;64576;50.460;4.866;2024-01-30T11:31:08;10.76;96.98
75899;DHT22;64576;50.460;4.866;2024-01-30T11:33:33;10.76;97.04
75899;DHT22;64576;50.460;4.866;2024-01-30T11:36:00;10.78;97.16
75899;DHT22;64576;50.460;4.866;2024-01-30T11:38:26;10.91;96.90
75899;DHT22;64576;50.460;4.866;2024-01-30T11:40:55;10.76;97.14
75899;DHT22;64576;50.460;4.866;2024-01-30T11:43:24;10.71;97.35
75899;DHT22;64576;50.460;4.866;2024-01-30T11:45:50;10.88;96.97
75899;DHT22;64576;50.460;4.866;2024-01-30T11:48:16;10.97;96.48
75899;DHT22;64576;50.460;4.866;2024-01-30T11:50:41;10.80;97.09
75899;DHT22;64576;50.460;4.866;2024-01-30T11:53:07;10.79;97.09
75899;DHT22;64576;50.460;4.866;2024-01-30T11:55:33;10.80;97.08
75899;DHT22;64576;50.460;4.866;2024-01-30T11:57:59;10.69;97.49
75899;DHT22;64576;50.460;4.866;2024-01-30T12:00:25;10.71;97.58
75899;DHT22;64576;50.460;4.866;2024-01-30T12:02:52;10.71;97.47
75899;DHT22;64576;50.460;4.866;2024-01-30T12:05:21;10.82;97.02
75899;DHT22;64576;50.460;4.866;2024-01-30T12:07:47;11.06;96.35
75899;DHT22;64576;50.460;4.866;2024-01-30T12:10:13;10.99;96.31
75899;DHT22;64576;50.460;4.866;2024-01-30T12:12:39;10.95;96.53
75899;DHT22;64576;50.460;4.866;2024-01-30T12:15:05;10.80;96.60
75899;DHT22;64576;50.460;4.866;2024-01-30T12:17:32;10.91;96.60
75899;DHT22;64576;50.460;4.866;2024-01-30T12:20:13;10.91;96.49
75899;DHT22;64576;50.460;4.866;2024-01-30T12:22:40;10.83;96.71
75899;DHT22;64576;50.460;4.866;2024-01-30T12:25:17;10.86;96.63
75899;DHT22;64576;50.460;4.866;2024-01-30T12:27:48;10.89;96.52
75899;DHT22;64576;50.460;4.866;2024-01-30T12:30:18;10.88;96.42
75899;DHT22;64576;50.460;4.866;2024-01-30T12:32:44;10.82;96.53
75899;DHT22;64576;50.460;4.866;2024-01-30T12:35:11;10.89;96.47
75899;DHT22;64576;50.460;4.866;2024-01-30T12:37:37;10.91;96.29
75899;DHT22;64576;50.460;4.866;2024-01-30T12:40:03;11.02;95.91
75899;DHT22;64576;50.460;4.866;2024-01-30T12:42:29;11.04;95.59
75899;DHT22;64576;50.460;4.866;2024-01-30T12:44:57;11.26;94.78
75899;DHT22;64576;50.460;4.866;2024-01-30T12:47:22;11.19;94.17
75899;DHT22;64576;50.460;4.866;2024-01-30T12:49:48;11.27;94.30
75899;DHT22;64576;50.460;4.866;2024-01-30T12:52:16;11.48;93.89
75899;DHT22;64576;50.460;4.866;2024-01-30T12:54:42;11.47;93.19
75899;DHT22;64576;50.460;4.866;2024-01-30T12:57:07;11.48;93.39
75899;DHT22;64576;50.460;4.866;2024-01-30T12:59:33;11.50;93.35
75899;DHT22;64576;50.460;4.866;2024-01-30T13:02:00;11.31;93.47
75899;DHT22;64576;50.460;4.866;2024-01-30T13:04:27;10.92;94.93
75899;DHT22;64576;50.460;4.866;2024-01-30T13:06:53;10.65;95.77
75899;DHT22;64576;50.460;4.866;2024-01-30T13:09:19;10.42;96.02
75899;DHT22;64576;50.460;4.866;2024-01-30T13:11:45;10.24;96.37
75899;DHT22;64576;50.460;4.866;2024-01-30T13:14:10;10.18;97.00
75899;DHT22;64576;50.460;4.866;2024-01-30T13:16:35;10.16;96.58
75899;DHT22;64576;50.460;4.866;2024-01-30T13:19:01;10.06;97.08
75899;DHT22;64576;50.460;4.866;2024-01-30T13:21:27;9.97;97.28
75899;DHT22;64576;50.460;4.866;2024-01-30T13:23:53;9.93;97.56
75899;DHT22;64576;50.460;4.866;2024-01-30T13:26:20;9.94;97.03
75899;DHT22;64576;50.460;4.866;2024-01-30T13:28:47;9.90;96.80
75899;DHT22;64576;50.460;4.866;2024-01-30T13:31:13;10.00;96.65
75899;DHT22;64576;50.460;4.866;2024-01-30T13:33:39;10.00;96.43
75899;DHT22;64576;50.460;4.866;2024-01-30T13:36:05;10.10;96.20
75899;DHT22;64576;50.460;4.866;2024-01-30T13:38:31;10.06;95.79
75899;DHT22;64576;50.460;4.866;2024-01-30T13:40:56;10.37;95.23
75899;DHT22;64576;50.460;4.866;2024-01-30T13:43:22;10.34;94.52
75899;DHT22;64576;50.460;4.866;2024-01-30T13:45:47;10.41;94.40
75899;DHT22;64576;50.460;4.866;2024-01-30T13:48:13;10.78;93.23
75899;DHT22;64576;50.460;4.866;2024-01-30T13:50:38;10.31;94.24
75899;DHT22;64576;50.460;4.866;2024-01-30T13:53:03;10.62;93.51
75899;DHT22;64576;50.460;4.866;2024-01-30T13:55:32;10.61;93.53
75899;DHT22;64576;50.460;4.866;2024-01-30T13:57:57;10.37;93.45
75899;DHT22;64576;50.460;4.866;2024-01-30T14:00:23;10.14;92.94
75899;DHT22;64576;50.460;4.866;2024-01-30T14:02:50;10.03;92.65
75899;DHT22;64576;50.460;4.866;2024-01-30T14:05:16;9.86;92.26
75899;DHT22;64576;50.460;4.866;2024-01-30T14:07:43;9.71;92.16
75899;DHT22;64576;50.460;4.866;2024-01-30T14:10:09;9.63;92.41
75899;DHT22;64576;50.460;4.866;2024-01-30T14:12:36;9.54;92.11
75899;DHT22;64576;50.460;4.866;2024-01-30T14:15:01;9.52;91.42
75899;DHT22;64576;50.460;4.866;2024-01-30T14:17:27;9.41;90.74
75899;DHT22;64576;50.460;4.866;2024-01-30T14:19:53;9.31;90.27
75899;DHT22;64576;50.460;4.866;2024-01-30T14:22:18;9.44;89.99
75899;DHT22;64576;50.460;4.866;2024-01-30T14:24:43;10.11;87.73
75899;DHT22;64576;50.460;4.866;2024-01-30T14:27:10;9.74;87.75
75899;DHT22;64576;50.460;4.866;2024-01-30T14:29:35;9.61;88.20
75899;DHT22;64576;50.460;4.866;2024-01-30T14:32:01;9.58;88.04
75899;DHT22;64576;50.460;4.866;2024-01-30T14:34:27;9.54;88.06
75899;DHT22;64576;50.460;4.866;2024-01-30T14:36:52;9.58;88.16
75899;DHT22;64576;50.460;4.866;2024-01-30T14:39:18;9.85;86.89
75899;DHT22;64576;50.460;4.866;2024-01-30T14:41:44;12.26;80.84
75899;DHT22;64576;50.460;4.866;2024-01-30T14:44:09;13.89;76.10
75899;DHT22;64576;50.460;4.866;2024-01-30T14:46:36;14.23;74.65
75899;DHT22;64576;50.460;4.866;2024-01-30T14:49:03;14.23;73.44
75899;DHT22;64576;50.460;4.866;2024-01-30T14:51:31;11.78;79.71
75899;DHT22;64576;50.460;4.866;2024-01-30T14:53:56;10.30;84.55
75899;DHT22;64576;50.460;4.866;2024-01-30T14:56:22;10.00;85.89
75899;DHT22;64576;50.460;4.866;2024-01-30T14:58:48;9.65;86.23
75899;DHT22;64576;50.460;4.866;2024-01-30T15:01:14;9.81;86.25
75899;DHT22;64576;50.460;4.866;2024-01-30T15:03:39;9.68;86.59
75899;DHT22;64576;50.460;4.866;2024-01-30T15:06:05;9.58;86.70
75899;DHT22;64576;50.460;4.866;2024-01-30T15:08:31;9.51;87.12
75899;DHT22;64576;50.460;4.866;2024-01-30T15:10:56;9.56;87.11
75899;DHT22;64576;50.460;4.866;2024-01-30T15:13:22;9.48;87.51
75899;DHT22;64576;50.460;4.866;2024-01-30T15:15:48;9.48;87.15
75899;DHT22;64576;50.460;4.866;2024-01-30T15:18:13;9.44;87.41
75899;DHT22;64576;50.460;4.866;2024-01-30T15:20:39;9.34;87.21
75899;DHT22;64576;50.460;4.866;2024-01-30T15:23:04;9.32;87.36
75899;DHT22;64576;50.460;4.866;2024-01-30T15:25:29;9.30;87.58
75899;DHT22;64576;50.460;4.866;2024-01-30T15:27:55;9.30;87.40
75899;DHT22;64576;50.460;4.866;2024-01-30T15:30:20;9.26;87.39
75899;DHT22;64576;50.460;4.866;2024-01-30T15:32:46;9.26;87.37